sensor_id;sensor_type;location;lat;lon;timestamp;P1;durP1;ratioP1;P2;durP2;ratioP2
14994;SDS011;7593;49.006;8.372;2023-09-08T00:02:26;6.95;;;5.35;;
14994;SDS011;7593;49.006;8.372;2023-09-08T00:04:54;5.93;;;4.60;;
14994;SDS011;7593;49.006;8.372;2023-09-08T00:07:21;6.13;;;4.85;;
14994;SDS011;7593;49.006;8.372;2023-09-08T00:09:48;6.47;;;4.97;;
14994;SDS011;7593;49.006;8.372;2023-09-08T00:12:16;6.32;;;4.82;;
14994;SDS011;7593;49.006;8.372;2023-09-08T00:14:43;6.28;;;4.65;;
14994;SDS011;7593;49.006;8.372;2023-09-08T00:17:10;6.88;;;5.15;;
14994;SDS011;7593;49.006;8.372;2023-09-08T00:19:36;7.13;;;4.95;;
14994;SDS011;7593;49.006;8.372;2023-09-08T00:22:04;7.07;;;5.10;;
14994;SDS011;7593;49.006;8.372;2023-09-08T00:24:32;4.88;;;4.45;;
14994;SDS011;7593;49.006;8.372;2023-09-08T00:26:59;6.30;;;4.85;;
14994;SDS011;7593;49.006;8.372;2023-09-08T00:29:27;6.60;;;5.00;;
14994;SDS011;7593;49.006;8.372;2023-09-08T00:31:53;5.55;;;5.00;;
14994;SDS011;7593;49.006;8.372;2023-09-08T00:34:20;6.63;;;4.60;;
14994;SDS011;7593;49.006;8.372;2023-09-08T00:36:47;5.85;;;4.78;;
14994;SDS011;7593;49.006;8.372;2023-09-08T00:39:14;5.47;;;4.97;;
14994;SDS011;7593;49.006;8.372;2023-09-08T00:41:40;6.57;;;4.90;;
14994;SDS011;7593;49.006;8.372;2023-09-08T00:44:07;6.07;;;5.25;;
14994;SDS011;7593;49.006;8.372;2023-09-08T00:46:37;5.05;;;4.65;;
14994;SDS011;7593;49.006;8.372;2023-09-08T00:49:04;5.30;;;4.82;;
14994;SDS011;7593;49.006;8.372;2023-09-08T00:51:33;6.20;;;5.00;;
14994;SDS011;7593;49.006;8.372;2023-09-08T00:54:02;5.97;;;4.80;;
14994;SDS011;7593;49.006;8.372;2023-09-08T00:56:30;5.32;;;4.80;;
14994;SDS011;7593;49.006;8.372;2023-09-08T00:58:57;5.88;;;5.32;;
14994;SDS011;7593;49.006;8.372;2023-09-08T01:01:24;8.98;;;5.93;;
14994;SDS011;7593;49.006;8.372;2023-09-08T01:03:52;5.88;;;5.10;;
14994;SDS011;7593;49.006;8.372;2023-09-08T01:06:19;5.40;;;4.90;;
14994;SDS011;7593;49.006;8.372;2023-09-08T01:08:47;11.40;;;4.97;;
14994;SDS011;7593;49.006;8.372;2023-09-08T01:11:15;5.30;;;4.80;;
14994;SDS011;7593;49.006;8.372;2023-09-08T01:13:42;5.45;;;4.90;;
14994;SDS011;7593;49.006;8.372;2023-09-08T01:16:09;6.25;;;5.25;;
14994;SDS011;7593;49.006;8.372;2023-09-08T01:18:36;6.35;;;5.15;;
14994;SDS011;7593;49.006;8.372;2023-09-08T01:21:10;5.95;;;5.40;;
14994;SDS011;7593;49.006;8.372;2023-09-08T01:23:56;6.47;;;5.00;;
14994;SDS011;7593;49.006;8.372;2023-09-08T01:26:42;5.97;;;4.78;;
14994;SDS011;7593;49.006;8.372;2023-09-08T01:29:09;5.95;;;5.35;;
14994;SDS011;7593;49.006;8.372;2023-09-08T01:31:37;7.45;;;5.20;;
14994;SDS011;7593;49.006;8.372;2023-09-08T01:34:04;6.15;;;5.30;;
14994;SDS011;7593;49.006;8.372;2023-09-08T01:36:32;6.07;;;5.47;;
14994;SDS011;7593;49.006;8.372;2023-09-08T01:38:58;6.93;;;5.40;;
14994;SDS011;7593;49.006;8.372;2023-09-08T01:41:26;6.47;;;5.57;;
14994;SDS011;7593;49.006;8.372;2023-09-08T01:43:54;5.63;;;5.13;;
14994;SDS011;7593;49.006;8.372;2023-09-08T01:46:21;6.05;;;5.38;;
14994;SDS011;7593;49.006;8.372;2023-09-08T01:48:47;5.63;;;4.85;;
14994;SDS011;7593;49.006;8.372;2023-09-08T01:51:14;5.40;;;4.93;;
14994;SDS011;7593;49.006;8.372;2023-09-08T01:53:41;7.32;;;5.38;;
14994;SDS011;7593;49.006;8.372;2023-09-08T01:56:07;6.10;;;5.47;;
14994;SDS011;7593;49.006;8.372;2023-09-08T01:58:34;6.72;;;5.60;;
14994;SDS011;7593;49.006;8.372;2023-09-08T02:01:02;5.78;;;5.28;;
14994;SDS011;7593;49.006;8.372;2023-09-08T02:03:30;5.50;;;5.00;;
14994;SDS011;7593;49.006;8.372;2023-09-08T02:05:57;6.70;;;5.45;;
14994;SDS011;7593;49.006;8.372;2023-09-08T02:08:24;5.97;;;5.38;;
14994;SDS011;7593;49.006;8.372;2023-09-08T02:10:51;5.55;;;4.93;;
14994;SDS011;7593;49.006;8.372;2023-09-08T02:13:17;5.85;;;5.22;;
14994;SDS011;7593;49.006;8.372;2023-09-08T02:15:44;6.93;;;5.63;;
14994;SDS011;7593;49.006;8.372;2023-09-08T02:18:12;7.53;;;5.07;;
14994;SDS011;7593;49.006;8.372;2023-09-08T02:20:39;8.68;;;5.68;;
14994;SDS011;7593;49.006;8.372;2023-09-08T02:23:06;5.63;;;5.13;;
14994;SDS011;7593;49.006;8.372;2023-09-08T02:25:33;7.60;;;5.38;;
14994;SDS011;7593;49.006;8.372;2023-09-08T02:27:59;6.03;;;5.40;;
14994;SDS011;7593;49.006;8.372;2023-09-08T02:30:26;6.38;;;5.78;;
14994;SDS011;7593;49.006;8.372;2023-09-08T02:32:53;6.22;;;5.60;;
14994;SDS011;7593;49.006;8.372;2023-09-08T02:35:22;7.03;;;5.75;;
14994;SDS011;7593;49.006;8.372;2023-09-08T02:37:49;6.03;;;5.43;;
14994;SDS011;7593;49.006;8.372;2023-09-08T02:40:16;6.40;;;5.72;;
14994;SDS011;7593;49.006;8.372;2023-09-08T02:42:44;6.78;;;5.72;;
14994;SDS011;7593;49.006;8.372;2023-09-08T02:45:11;7.28;;;5.75;;
14994;SDS011;7593;49.006;8.372;2023-09-08T02:47:38;5.90;;;5.30;;
14994;SDS011;7593;49.006;8.372;2023-09-08T02:50:05;8.02;;;5.32;;
14994;SDS011;7593;49.006;8.372;2023-09-08T02:52:34;6.32;;;5.72;;
14994;SDS011;7593;49.006;8.372;2023-09-08T02:55:00;6.95;;;6.25;;
14994;SDS011;7593;49.006;8.372;2023-09-08T02:57:27;6.20;;;5.60;;
14994;SDS011;7593;49.006;8.372;2023-09-08T02:59:54;6.38;;;5.65;;
14994;SDS011;7593;49.006;8.372;2023-09-08T03:02:21;7.25;;;5.82;;
14994;SDS011;7593;49.006;8.372;2023-09-08T03:04:48;8.35;;;5.88;;
14994;SDS011;7593;49.006;8.372;2023-09-08T03:07:15;7.88;;;5.97;;
14994;SDS011;7593;49.006;8.372;2023-09-08T03:09:43;7.60;;;5.68;;
14994;SDS011;7593;49.006;8.372;2023-09-08T03:12:10;8.52;;;5.50;;
14994;SDS011;7593;49.006;8.372;2023-09-08T03:14:37;6.65;;;5.03;;
14994;SDS011;7593;49.006;8.372;2023-09-08T03:17:03;6.03;;;5.43;;
14994;SDS011;7593;49.006;8.372;2023-09-08T03:19:30;6.47;;;5.55;;
14994;SDS011;7593;49.006;8.372;2023-09-08T03:21:57;6.30;;;5.68;;
14994;SDS011;7593;49.006;8.372;2023-09-08T03:24:24;6.70;;;6.10;;
14994;SDS011;7593;49.006;8.372;2023-09-08T03:26:52;6.57;;;5.47;;
14994;SDS011;7593;49.006;8.372;2023-09-08T03:29:19;5.80;;;5.30;;
14994;SDS011;7593;49.006;8.372;2023-09-08T03:31:46;9.25;;;5.60;;
14994;SDS011;7593;49.006;8.372;2023-09-08T03:34:13;6.97;;;5.90;;
14994;SDS011;7593;49.006;8.372;2023-09-08T03:36:39;5.85;;;5.35;;
14994;SDS011;7593;49.006;8.372;2023-09-08T03:39:06;6.15;;;5.50;;
14994;SDS011;7593;49.006;8.372;2023-09-08T03:41:34;8.43;;;6.07;;
14994;SDS011;7593;49.006;8.372;2023-09-08T03:44:03;9.23;;;5.97;;
14994;SDS011;7593;49.006;8.372;2023-09-08T03:46:30;6.78;;;6.05;;
14994;SDS011;7593;49.006;8.372;2023-09-08T03:48:57;6.40;;;5.90;;
14994;SDS011;7593;49.006;8.372;2023-09-08T03:51:26;6.25;;;5.65;;
14994;SDS011;7593;49.006;8.372;2023-09-08T03:53:53;7.20;;;6.00;;
14994;SDS011;7593;49.006;8.372;2023-09-08T03:56:20;7.63;;;5.95;;
14994;SDS011;7593;49.006;8.372;2023-09-08T03:58:47;6.75;;;6.05;;
14994;SDS011;7593;49.006;8.372;2023-09-08T04:01:15;7.43;;;6.07;;
14994;SDS011;7593;49.006;8.372;2023-09-08T04:03:42;7.35;;;6.13;;
14994;SDS011;7593;49.006;8.372;2023-09-08T04:06:09;7.68;;;6.07;;
14994;SDS011;7593;49.006;8.372;2023-09-08T04:08:36;7.35;;;6.63;;
14994;SDS011;7593;49.006;8.372;2023-09-08T04:11:03;7.13;;;6.43;;
14994;SDS011;7593;49.006;8.372;2023-09-08T04:13:30;8.93;;;6.43;;
14994;SDS011;7593;49.006;8.372;2023-09-08T04:15:57;7.55;;;6.55;;
14994;SDS011;7593;49.006;8.372;2023-09-08T04:18:25;6.88;;;6.18;;
14994;SDS011;7593;49.006;8.372;2023-09-08T04:20:52;7.85;;;5.53;;
14994;SDS011;7593;49.006;8.372;2023-09-08T04:23:19;7.13;;;6.43;;
14994;SDS011;7593;49.006;8.372;2023-09-08T04:25:45;9.93;;;6.35;;
14994;SDS011;7593;49.006;8.372;2023-09-08T04:28:12;8.15;;;6.88;;
14994;SDS011;7593;49.006;8.372;2023-09-08T04:30:39;6.85;;;6.25;;
14994;SDS011;7593;49.006;8.372;2023-09-08T04:33:06;6.88;;;6.18;;
14994;SDS011;7593;49.006;8.372;2023-09-08T04:35:34;7.28;;;6.68;;
14994;SDS011;7593;49.006;8.372;2023-09-08T04:38:02;7.20;;;6.07;;
14994;SDS011;7593;49.006;8.372;2023-09-08T04:40:29;8.50;;;6.80;;
14994;SDS011;7593;49.006;8.372;2023-09-08T04:42:55;8.85;;;7.40;;
14994;SDS011;7593;49.006;8.372;2023-09-08T04:45:22;9.20;;;6.72;;
14994;SDS011;7593;49.006;8.372;2023-09-08T04:47:49;13.07;;;6.72;;
14994;SDS011;7593;49.006;8.372;2023-09-08T04:50:16;8.55;;;6.78;;
14994;SDS011;7593;49.006;8.372;2023-09-08T04:52:44;12.63;;;6.95;;
14994;SDS011;7593;49.006;8.372;2023-09-08T04:55:11;9.60;;;7.03;;
14994;SDS011;7593;49.006;8.372;2023-09-08T04:57:38;9.30;;;6.63;;
14994;SDS011;7593;49.006;8.372;2023-09-08T05:00:05;7.63;;;6.45;;
14994;SDS011;7593;49.006;8.372;2023-09-08T05:02:33;9.40;;;6.78;;
14994;SDS011;7593;49.006;8.372;2023-09-08T05:05:00;10.77;;;6.80;;
14994;SDS011;7593;49.006;8.372;2023-09-08T05:07:26;7.90;;;6.43;;
14994;SDS011;7593;49.006;8.372;2023-09-08T05:09:55;8.55;;;6.75;;
14994;SDS011;7593;49.006;8.372;2023-09-08T05:12:21;7.35;;;6.55;;
14994;SDS011;7593;49.006;8.372;2023-09-08T05:14:48;7.18;;;6.57;;
14994;SDS011;7593;49.006;8.372;2023-09-08T05:17:20;7.25;;;6.55;;
14994;SDS011;7593;49.006;8.372;2023-09-08T05:19:47;9.07;;;6.70;;
14994;SDS011;7593;49.006;8.372;2023-09-08T05:22:16;9.27;;;6.85;;
14994;SDS011;7593;49.006;8.372;2023-09-08T05:24:43;8.48;;;6.38;;
14994;SDS011;7593;49.006;8.372;2023-09-08T05:27:11;9.73;;;6.18;;
14994;SDS011;7593;49.006;8.372;2023-09-08T05:29:38;8.45;;;6.47;;
14994;SDS011;7593;49.006;8.372;2023-09-08T05:32:05;8.75;;;6.30;;
14994;SDS011;7593;49.006;8.372;2023-09-08T05:34:32;9.57;;;6.50;;
14994;SDS011;7593;49.006;8.372;2023-09-08T05:36:59;11.13;;;6.60;;
14994;SDS011;7593;49.006;8.372;2023-09-08T05:39:26;8.43;;;6.28;;
14994;SDS011;7593;49.006;8.372;2023-09-08T05:41:52;10.20;;;6.47;;
14994;SDS011;7593;49.006;8.372;2023-09-08T05:44:21;6.07;;;5.47;;
14994;SDS011;7593;49.006;8.372;2023-09-08T05:46:47;7.18;;;6.18;;
14994;SDS011;7593;49.006;8.372;2023-09-08T05:49:14;6.32;;;5.72;;
14994;SDS011;7593;49.006;8.372;2023-09-08T05:51:42;8.48;;;5.85;;
14994;SDS011;7593;49.006;8.372;2023-09-08T05:54:09;8.70;;;6.25;;
14994;SDS011;7593;49.006;8.372;2023-09-08T05:56:36;10.35;;;5.82;;
14994;SDS011;7593;49.006;8.372;2023-09-08T05:59:04;8.35;;;6.32;;
14994;SDS011;7593;49.006;8.372;2023-09-08T06:01:32;8.20;;;6.25;;
14994;SDS011;7593;49.006;8.372;2023-09-08T06:03:59;8.18;;;6.30;;
14994;SDS011;7593;49.006;8.372;2023-09-08T06:06:26;8.45;;;6.18;;
14994;SDS011;7593;49.006;8.372;2023-09-08T06:08:53;7.32;;;5.93;;
14994;SDS011;7593;49.006;8.372;2023-09-08T06:11:20;8.88;;;5.65;;
14994;SDS011;7593;49.006;8.372;2023-09-08T06:13:47;8.90;;;6.25;;
14994;SDS011;7593;49.006;8.372;2023-09-08T06:16:14;6.25;;;5.63;;
14994;SDS011;7593;49.006;8.372;2023-09-08T06:18:42;7.32;;;6.50;;
14994;SDS011;7593;49.006;8.372;2023-09-08T06:21:09;6.78;;;6.03;;
14994;SDS011;7593;49.006;8.372;2023-09-08T06:23:36;8.95;;;6.25;;
14994;SDS011;7593;49.006;8.372;2023-09-08T06:26:03;7.68;;;6.38;;
14994;SDS011;7593;49.006;8.372;2023-09-08T06:28:30;10.90;;;6.10;;
14994;SDS011;7593;49.006;8.372;2023-09-08T06:30:57;8.05;;;6.05;;
14994;SDS011;7593;49.006;8.372;2023-09-08T06:33:23;8.32;;;5.95;;
14994;SDS011;7593;49.006;8.372;2023-09-08T06:35:52;6.90;;;5.85;;
14994;SDS011;7593;49.006;8.372;2023-09-08T06:38:19;6.85;;;6.15;;
14994;SDS011;7593;49.006;8.372;2023-09-08T06:40:46;9.10;;;6.82;;
14994;SDS011;7593;49.006;8.372;2023-09-08T06:43:14;8.93;;;6.38;;
14994;SDS011;7593;49.006;8.372;2023-09-08T06:45:41;8.15;;;6.07;;
14994;SDS011;7593;49.006;8.372;2023-09-08T06:48:08;7.38;;;6.03;;
14994;SDS011;7593;49.006;8.372;2023-09-08T06:50:35;10.90;;;6.22;;
14994;SDS011;7593;49.006;8.372;2023-09-08T06:53:03;7.25;;;5.68;;
14994;SDS011;7593;49.006;8.372;2023-09-08T06:55:30;7.70;;;5.47;;
14994;SDS011;7593;49.006;8.372;2023-09-08T06:57:57;9.27;;;5.97;;
14994;SDS011;7593;49.006;8.372;2023-09-08T07:00:24;7.40;;;5.90;;
14994;SDS011;7593;49.006;8.372;2023-09-08T07:02:51;7.72;;;6.38;;
14994;SDS011;7593;49.006;8.372;2023-09-08T07:05:18;7.55;;;5.70;;
14994;SDS011;7593;49.006;8.372;2023-09-08T07:07:45;7.40;;;6.13;;
14994;SDS011;7593;49.006;8.372;2023-09-08T07:10:14;6.32;;;5.70;;
14994;SDS011;7593;49.006;8.372;2023-09-08T07:12:41;7.30;;;6.20;;
14994;SDS011;7593;49.006;8.372;2023-09-08T07:15:08;8.55;;;5.50;;
14994;SDS011;7593;49.006;8.372;2023-09-08T07:17:35;7.25;;;6.20;;
14994;SDS011;7593;49.006;8.372;2023-09-08T07:20:03;8.13;;;6.22;;
14994;SDS011;7593;49.006;8.372;2023-09-08T07:22:30;8.05;;;6.35;;
14994;SDS011;7593;49.006;8.372;2023-09-08T07:24:57;10.73;;;6.18;;
14994;SDS011;7593;49.006;8.372;2023-09-08T07:27:26;7.30;;;6.53;;
14994;SDS011;7593;49.006;8.372;2023-09-08T07:29:53;9.63;;;6.10;;
14994;SDS011;7593;49.006;8.372;2023-09-08T07:32:20;7.80;;;6.35;;
14994;SDS011;7593;49.006;8.372;2023-09-08T07:34:47;8.38;;;7.00;;
14994;SDS011;7593;49.006;8.372;2023-09-08T07:37:19;7.18;;;6.47;;
14994;SDS011;7593;49.006;8.372;2023-09-08T07:39:46;8.32;;;6.88;;
14994;SDS011;7593;49.006;8.372;2023-09-08T07:42:13;8.43;;;6.93;;
14994;SDS011;7593;49.006;8.372;2023-09-08T07:44:41;7.40;;;6.80;;
14994;SDS011;7593;49.006;8.372;2023-09-08T07:47:08;7.88;;;6.80;;
14994;SDS011;7593;49.006;8.372;2023-09-08T07:49:35;7.72;;;6.53;;
14994;SDS011;7593;49.006;8.372;2023-09-08T07:52:02;7.68;;;6.88;;
14994;SDS011;7593;49.006;8.372;2023-09-08T07:54:32;10.25;;;7.30;;
14994;SDS011;7593;49.006;8.372;2023-09-08T07:56:58;8.15;;;6.93;;
14994;SDS011;7593;49.006;8.372;2023-09-08T07:59:25;7.88;;;7.07;;
14994;SDS011;7593;49.006;8.372;2023-09-08T08:01:53;11.32;;;7.13;;
14994;SDS011;7593;49.006;8.372;2023-09-08T08:04:20;10.35;;;6.93;;
14994;SDS011;7593;49.006;8.372;2023-09-08T08:06:47;13.00;;;7.53;;
14994;SDS011;7593;49.006;8.372;2023-09-08T08:09:14;8.20;;;7.40;;
14994;SDS011;7593;49.006;8.372;2023-09-08T08:11:41;8.35;;;7.13;;
14994;SDS011;7593;49.006;8.372;2023-09-08T08:14:08;8.32;;;6.60;;
14994;SDS011;7593;49.006;8.372;2023-09-08T08:16:34;7.97;;;6.97;;
14994;SDS011;7593;49.006;8.372;2023-09-08T08:19:03;10.65;;;7.55;;
14994;SDS011;7593;49.006;8.372;2023-09-08T08:21:30;14.75;;;7.47;;
14994;SDS011;7593;49.006;8.372;2023-09-08T08:23:56;9.75;;;6.95;;
14994;SDS011;7593;49.006;8.372;2023-09-08T08:26:23;7.95;;;7.10;;
14994;SDS011;7593;49.006;8.372;2023-09-08T08:28:53;8.50;;;6.85;;
14994;SDS011;7593;49.006;8.372;2023-09-08T08:31:20;9.35;;;7.38;;
14994;SDS011;7593;49.006;8.372;2023-09-08T08:33:47;8.35;;;7.03;;
14994;SDS011;7593;49.006;8.372;2023-09-08T08:36:15;9.90;;;7.13;;
14994;SDS011;7593;49.006;8.372;2023-09-08T08:38:42;10.15;;;7.25;;
14994;SDS011;7593;49.006;8.372;2023-09-08T08:41:10;12.93;;;7.72;;
14994;SDS011;7593;49.006;8.372;2023-09-08T08:43:36;10.25;;;7.47;;
14994;SDS011;7593;49.006;8.372;2023-09-08T08:46:03;7.88;;;6.95;;
14994;SDS011;7593;49.006;8.372;2023-09-08T08:48:31;7.57;;;6.75;;
14994;SDS011;7593;49.006;8.372;2023-09-08T08:50:59;9.65;;;7.30;;
14994;SDS011;7593;49.006;8.372;2023-09-08T08:53:28;7.28;;;6.57;;
14994;SDS011;7593;49.006;8.372;2023-09-08T08:55:56;11.15;;;7.25;;
14994;SDS011;7593;49.006;8.372;2023-09-08T08:58:27;7.55;;;6.45;;
14994;SDS011;7593;49.006;8.372;2023-09-08T09:00:54;7.45;;;6.47;;
14994;SDS011;7593;49.006;8.372;2023-09-08T09:03:26;7.80;;;6.90;;
14994;SDS011;7593;49.006;8.372;2023-09-08T09:05:53;9.15;;;6.82;;
14994;SDS011;7593;49.006;8.372;2023-09-08T09:08:20;7.65;;;6.68;;
14994;SDS011;7593;49.006;8.372;2023-09-08T09:10:52;8.77;;;7.25;;
14994;SDS011;7593;49.006;8.372;2023-09-08T09:13:19;9.52;;;6.88;;
14994;SDS011;7593;49.006;8.372;2023-09-08T09:15:46;6.80;;;6.20;;
14994;SDS011;7593;49.006;8.372;2023-09-08T09:18:15;8.63;;;6.20;;
14994;SDS011;7593;49.006;8.372;2023-09-08T09:20:42;6.65;;;6.00;;
14994;SDS011;7593;49.006;8.372;2023-09-08T09:23:26;6.95;;;5.70;;
14994;SDS011;7593;49.006;8.372;2023-09-08T09:25:56;7.05;;;6.10;;
14994;SDS011;7593;49.006;8.372;2023-09-08T09:28:24;6.93;;;6.00;;
14994;SDS011;7593;49.006;8.372;2023-09-08T09:30:52;6.80;;;6.10;;
14994;SDS011;7593;49.006;8.372;2023-09-08T09:33:20;6.85;;;6.15;;
14994;SDS011;7593;49.006;8.372;2023-09-08T09:35:48;6.38;;;5.78;;
14994;SDS011;7593;49.006;8.372;2023-09-08T09:38:16;7.80;;;5.90;;
14994;SDS011;7593;49.006;8.372;2023-09-08T09:40:44;6.55;;;5.95;;
14994;SDS011;7593;49.006;8.372;2023-09-08T09:43:13;6.40;;;5.90;;
14994;SDS011;7593;49.006;8.372;2023-09-08T09:45:41;14.30;;;7.15;;
14994;SDS011;7593;49.006;8.372;2023-09-08T09:48:09;7.88;;;5.80;;
14994;SDS011;7593;49.006;8.372;2023-09-08T09:50:37;11.38;;;6.10;;
14994;SDS011;7593;49.006;8.372;2023-09-08T09:53:08;6.35;;;5.70;;
14994;SDS011;7593;49.006;8.372;2023-09-08T09:55:36;7.90;;;5.53;;
14994;SDS011;7593;49.006;8.372;2023-09-08T09:58:04;6.63;;;6.03;;
14994;SDS011;7593;49.006;8.372;2023-09-08T10:00:33;8.20;;;6.10;;
14994;SDS011;7593;49.006;8.372;2023-09-08T10:03:02;6.35;;;5.38;;
14994;SDS011;7593;49.006;8.372;2023-09-08T10:05:30;5.80;;;5.28;;
14994;SDS011;7593;49.006;8.372;2023-09-08T10:07:58;6.80;;;5.72;;
14994;SDS011;7593;49.006;8.372;2023-09-08T10:10:26;6.10;;;5.57;;
14994;SDS011;7593;49.006;8.372;2023-09-08T10:12:56;9.38;;;5.38;;
14994;SDS011;7593;49.006;8.372;2023-09-08T10:15:26;6.20;;;5.60;;
14994;SDS011;7593;49.006;8.372;2023-09-08T10:17:55;6.63;;;5.40;;
14994;SDS011;7593;49.006;8.372;2023-09-08T10:20:25;8.07;;;5.43;;
14994;SDS011;7593;49.006;8.372;2023-09-08T10:22:54;6.97;;;5.13;;
14994;SDS011;7593;49.006;8.372;2023-09-08T10:25:46;6.82;;;5.28;;
14994;SDS011;7593;49.006;8.372;2023-09-08T10:28:19;9.27;;;5.22;;
14994;SDS011;7593;49.006;8.372;2023-09-08T10:30:47;6.25;;;5.70;;
14994;SDS011;7593;49.006;8.372;2023-09-08T10:33:17;6.55;;;5.53;;
14994;SDS011;7593;49.006;8.372;2023-09-08T10:35:45;6.50;;;5.68;;
14994;SDS011;7593;49.006;8.372;2023-09-08T10:38:22;9.55;;;5.68;;
14994;SDS011;7593;49.006;8.372;2023-09-08T10:40:50;9.13;;;5.60;;
14994;SDS011;7593;49.006;8.372;2023-09-08T10:43:17;8.02;;;5.47;;
14994;SDS011;7593;49.006;8.372;2023-09-08T10:45:45;9.68;;;5.75;;
14994;SDS011;7593;49.006;8.372;2023-09-08T10:48:14;7.63;;;5.43;;
14994;SDS011;7593;49.006;8.372;2023-09-08T10:50:43;6.05;;;5.35;;
14994;SDS011;7593;49.006;8.372;2023-09-08T10:53:12;5.80;;;5.32;;
14994;SDS011;7593;49.006;8.372;2023-09-08T10:55:41;10.25;;;5.43;;
14994;SDS011;7593;49.006;8.372;2023-09-08T10:58:17;7.32;;;5.57;;
14994;SDS011;7593;49.006;8.372;2023-09-08T11:00:45;5.72;;;5.15;;
14994;SDS011;7593;49.006;8.372;2023-09-08T11:03:24;8.10;;;5.00;;
14994;SDS011;7593;49.006;8.372;2023-09-08T11:05:55;8.40;;;5.18;;
14994;SDS011;7593;49.006;8.372;2023-09-08T11:08:22;5.55;;;5.00;;
14994;SDS011;7593;49.006;8.372;2023-09-08T11:10:49;6.60;;;4.80;;
14994;SDS011;7593;49.006;8.372;2023-09-08T11:13:17;7.35;;;5.18;;
14994;SDS011;7593;49.006;8.372;2023-09-08T11:15:44;6.75;;;4.82;;
14994;SDS011;7593;49.006;8.372;2023-09-08T11:18:11;6.10;;;4.57;;
14994;SDS011;7593;49.006;8.372;2023-09-08T11:20:38;6.45;;;4.82;;
14994;SDS011;7593;49.006;8.372;2023-09-08T11:23:06;6.50;;;5.30;;
14994;SDS011;7593;49.006;8.372;2023-09-08T11:25:33;7.65;;;4.55;;
14994;SDS011;7593;49.006;8.372;2023-09-08T11:27:59;5.30;;;4.60;;
14994;SDS011;7593;49.006;8.372;2023-09-08T11:30:26;4.88;;;4.45;;
14994;SDS011;7593;49.006;8.372;2023-09-08T11:32:53;5.00;;;4.50;;
14994;SDS011;7593;49.006;8.372;2023-09-08T11:35:25;6.18;;;4.95;;
14994;SDS011;7593;49.006;8.372;2023-09-08T11:37:53;7.22;;;4.38;;
14994;SDS011;7593;49.006;8.372;2023-09-08T11:40:29;4.90;;;3.90;;
14994;SDS011;7593;49.006;8.372;2023-09-08T11:42:57;5.55;;;3.92;;
14994;SDS011;7593;49.006;8.372;2023-09-08T11:45:24;6.47;;;4.35;;
14994;SDS011;7593;49.006;8.372;2023-09-08T11:47:52;7.20;;;4.10;;
14994;SDS011;7593;49.006;8.372;2023-09-08T11:50:19;9.75;;;5.38;;
14994;SDS011;7593;49.006;8.372;2023-09-08T11:52:48;4.63;;;4.22;;
14994;SDS011;7593;49.006;8.372;2023-09-08T11:55:16;7.38;;;3.95;;
14994;SDS011;7593;49.006;8.372;2023-09-08T11:57:45;4.75;;;3.65;;
14994;SDS011;7593;49.006;8.372;2023-09-08T12:00:23;4.30;;;3.85;;
14994;SDS011;7593;49.006;8.372;2023-09-08T12:02:51;4.82;;;4.13;;
14994;SDS011;7593;49.006;8.372;2023-09-08T12:05:21;4.25;;;3.92;;
14994;SDS011;7593;49.006;8.372;2023-09-08T12:07:49;5.03;;;3.70;;
14994;SDS011;7593;49.006;8.372;2023-09-08T12:10:17;5.25;;;3.90;;
14994;SDS011;7593;49.006;8.372;2023-09-08T12:12:46;4.18;;;3.83;;
14994;SDS011;7593;49.006;8.372;2023-09-08T12:15:30;9.90;;;4.10;;
14994;SDS011;7593;49.006;8.372;2023-09-08T12:17:58;4.82;;;3.50;;
14994;SDS011;7593;49.006;8.372;2023-09-08T12:20:25;6.60;;;3.70;;
14994;SDS011;7593;49.006;8.372;2023-09-08T12:22:52;7.38;;;3.78;;
14994;SDS011;7593;49.006;8.372;2023-09-08T12:25:19;4.93;;;3.40;;
14994;SDS011;7593;49.006;8.372;2023-09-08T12:27:49;5.70;;;3.80;;
14994;SDS011;7593;49.006;8.372;2023-09-08T12:30:17;6.93;;;4.20;;
14994;SDS011;7593;49.006;8.372;2023-09-08T12:32:46;7.15;;;3.83;;
14994;SDS011;7593;49.006;8.372;2023-09-08T12:35:19;4.00;;;3.58;;
14994;SDS011;7593;49.006;8.372;2023-09-08T12:37:52;4.95;;;3.30;;
14994;SDS011;7593;49.006;8.372;2023-09-08T12:40:20;5.75;;;3.72;;
14994;SDS011;7593;49.006;8.372;2023-09-08T12:42:48;8.32;;;3.60;;
14994;SDS011;7593;49.006;8.372;2023-09-08T12:45:15;6.78;;;3.70;;
14994;SDS011;7593;49.006;8.372;2023-09-08T12:47:42;3.50;;;3.15;;
14994;SDS011;7593;49.006;8.372;2023-09-08T12:50:09;5.15;;;3.22;;
14994;SDS011;7593;49.006;8.372;2023-09-08T12:52:38;5.30;;;3.20;;
14994;SDS011;7593;49.006;8.372;2023-09-08T12:55:05;6.10;;;3.63;;
14994;SDS011;7593;49.006;8.372;2023-09-08T12:57:32;4.80;;;3.50;;
14994;SDS011;7593;49.006;8.372;2023-09-08T13:00:02;5.85;;;3.53;;
14994;SDS011;7593;49.006;8.372;2023-09-08T13:02:30;6.38;;;3.20;;
14994;SDS011;7593;49.006;8.372;2023-09-08T13:04:57;6.50;;;3.40;;
14994;SDS011;7593;49.006;8.372;2023-09-08T13:07:24;3.35;;;3.05;;
14994;SDS011;7593;49.006;8.372;2023-09-08T13:09:51;4.38;;;3.15;;
14994;SDS011;7593;49.006;8.372;2023-09-08T13:12:17;4.68;;;2.95;;
14994;SDS011;7593;49.006;8.372;2023-09-08T13:14:44;3.75;;;2.70;;
14994;SDS011;7593;49.006;8.372;2023-09-08T13:17:13;3.33;;;2.92;;
14994;SDS011;7593;49.006;8.372;2023-09-08T13:19:41;6.28;;;3.17;;
14994;SDS011;7593;49.006;8.372;2023-09-08T13:22:08;3.90;;;2.95;;
14994;SDS011;7593;49.006;8.372;2023-09-08T13:24:35;5.55;;;3.30;;
14994;SDS011;7593;49.006;8.372;2023-09-08T13:27:02;4.03;;;2.88;;
14994;SDS011;7593;49.006;8.372;2023-09-08T13:29:29;5.68;;;3.00;;
14994;SDS011;7593;49.006;8.372;2023-09-08T13:31:56;4.13;;;3.10;;
14994;SDS011;7593;49.006;8.372;2023-09-08T13:34:25;3.53;;;3.20;;
14994;SDS011;7593;49.006;8.372;2023-09-08T13:36:51;4.80;;;3.03;;
14994;SDS011;7593;49.006;8.372;2023-09-08T13:39:18;3.95;;;3.10;;
14994;SDS011;7593;49.006;8.372;2023-09-08T13:41:46;4.03;;;3.00;;
14994;SDS011;7593;49.006;8.372;2023-09-08T13:44:15;4.82;;;3.17;;
14994;SDS011;7593;49.006;8.372;2023-09-08T13:46:42;3.83;;;2.90;;
14994;SDS011;7593;49.006;8.372;2023-09-08T13:49:09;3.75;;;2.60;;
14994;SDS011;7593;49.006;8.372;2023-09-08T13:51:38;3.78;;;2.70;;
14994;SDS011;7593;49.006;8.372;2023-09-08T13:54:05;3.00;;;2.70;;
14994;SDS011;7593;49.006;8.372;2023-09-08T13:56:33;3.35;;;2.78;;
14994;SDS011;7593;49.006;8.372;2023-09-08T13:58:59;2.90;;;2.60;;
14994;SDS011;7593;49.006;8.372;2023-09-08T14:01:27;3.58;;;3.10;;
14994;SDS011;7593;49.006;8.372;2023-09-08T14:03:54;3.67;;;3.10;;
14994;SDS011;7593;49.006;8.372;2023-09-08T14:06:21;4.00;;;2.50;;
14994;SDS011;7593;49.006;8.372;2023-09-08T14:08:51;3.47;;;2.88;;
14994;SDS011;7593;49.006;8.372;2023-09-08T14:11:18;4.82;;;2.72;;
14994;SDS011;7593;49.006;8.372;2023-09-08T14:13:45;4.50;;;2.97;;
14994;SDS011;7593;49.006;8.372;2023-09-08T14:16:12;2.60;;;2.40;;
14994;SDS011;7593;49.006;8.372;2023-09-08T14:18:39;5.10;;;3.30;;
14994;SDS011;7593;49.006;8.372;2023-09-08T14:21:06;3.55;;;2.80;;
14994;SDS011;7593;49.006;8.372;2023-09-08T14:23:33;4.25;;;2.75;;
14994;SDS011;7593;49.006;8.372;2023-09-08T14:26:03;5.60;;;3.00;;
14994;SDS011;7593;49.006;8.372;2023-09-08T14:28:30;3.15;;;2.70;;
14994;SDS011;7593;49.006;8.372;2023-09-08T14:30:58;3.38;;;2.90;;
14994;SDS011;7593;49.006;8.372;2023-09-08T14:33:25;3.95;;;2.85;;
14994;SDS011;7593;49.006;8.372;2023-09-08T14:35:52;5.57;;;3.00;;
14994;SDS011;7593;49.006;8.372;2023-09-08T14:38:19;4.00;;;2.70;;
14994;SDS011;7593;49.006;8.372;2023-09-08T14:40:53;3.05;;;2.65;;
14994;SDS011;7593;49.006;8.372;2023-09-08T14:43:23;3.38;;;2.70;;
14994;SDS011;7593;49.006;8.372;2023-09-08T14:45:50;4.68;;;2.90;;
14994;SDS011;7593;49.006;8.372;2023-09-08T14:48:17;2.80;;;2.60;;
14994;SDS011;7593;49.006;8.372;2023-09-08T14:50:44;4.80;;;2.80;;
14994;SDS011;7593;49.006;8.372;2023-09-08T14:53:12;3.05;;;2.75;;
14994;SDS011;7593;49.006;8.372;2023-09-08T14:55:39;4.60;;;3.00;;
14994;SDS011;7593;49.006;8.372;2023-09-08T14:58:08;4.28;;;2.72;;
14994;SDS011;7593;49.006;8.372;2023-09-08T15:00:37;8.60;;;3.40;;
14994;SDS011;7593;49.006;8.372;2023-09-08T15:03:04;3.95;;;3.00;;
14994;SDS011;7593;49.006;8.372;2023-09-08T15:05:32;3.15;;;2.85;;